Sedalia, IN (46067)

12:34 AM EDT del 01 novembre 2014 (GMT -0400)
Little Lakes Estates | Change Station
CLOSE
Current Station
Stazione meteo personale
Location: Frankfort, IN
Altitudine: 850 ft
Stazioni meteo nelle vicinanze
Avvisi attivi: Freeze Warning

Alt. 850 ft 40.35 °N, 86.49 °W | Updated 3 seconds ago

Coperto
Coperto
33.3 °F
Sembra 21 °F
N
21.3
Vento Variabile Vento da Sud
Gusts 21.3 mph

Oggi
Massima -- | Minima -- °F
--% Possibilità di precip.
Ieri
Massima -- | Minima -- °F
Precip. -- in
8:15 AM 6:42 PM
Gobba a ponente, 62% visible
Pressione 30.24 in
Visibilità 10.0 miglia
Nuvole Sereno
Raffreddamento del vento 21 °F
Punto di rugiada 25 °F
Umidità 71%
Piovosità 0.00 in
Spessore del manto nevoso Non disponibile.
Raggi UV 0 fuori da 12
Polline .10 fuori da 12
Qualità dell'aria Non disponibile.
Flu Activity Non disponibile.
METAR KGGP 010415Z AUTO 36015G22KT 10SM CLR 00/M05 A3024 RMK AO2

More Conditions Fewer Conditions

Pressione 30.24 in
Visibilità 10.0 miglia
Nuvole Sereno
Raffreddamento del vento 21 °F
Punto di rugiada 25 °F
Umidità 71%
Piovosità 0.00 in
Spessore del manto nevoso Non disponibile.
Raggi UV 0 fuori da 12
Polline .10 fuori da 12
Qualità dell'aria Non disponibile.
Flu Activity Non disponibile.
METAR KGGP 010415Z AUTO 36015G22KT 10SM CLR 00/M05 A3024 RMK AO2

More Conditions Fewer Conditions

10-Day Weather Forecast

Almanac

Astronomia

Nov. 01, 2014 Alba Tramonto
Ora attuale
Crepuscolo civile
Crepuscolo nautico
Crepuscolo astronomico
Luna
Estensione della luce visibile
Lunghezza del giorno
Tomorrow will be .
, % of the Moon is Illuminated

Gli estremi di oggi

State Highs State Lows

Community

WunderPhotos

Upload Photos

1,766,854 foto caricate!

WunderBlogs® & News

Nearby

Qualità dell'aria

  Qualità dell'aria Indice AQ Inquinante
Not available.

Profondità neve

Stazione Profondità Altitudine

Attività sismica

Città  Distanza Mag. Data & Ora
Minimo Magnitudo Mostrato è 2.5.

Temperature delle acque costiere

Località Temperatura

Stazioni meteo nelle vicinanze